Coreocean Ol — 3FKW9 — position and weather

sailwx.info

Track history (hours):
 
Tides and Currents Weather Stations Pressure Air Temp Water Temp Dewpoint Dewpoint Depression Visibility Wind Speed Wind Dir Waves Ship Positions

Coreocean Ol

Last reported at 2018-Feb-04 19:58 UTC. Time now 2018-Feb-22 11:10 UTC.
Position N 39°05' W 075°11'.
Warning: this ship's position is 17 days out of date.

Length 170 m; draft 10.3 m.

Type: Cargo ship. MMSI: 372878000.

Date/timePositionNaut miles runAvg speedWind from/ knotsBaromVisibWave heightAir tempDewpointWater temp
2018-Feb-04 19:58N 39°05' W 075°11'511.5
2018-Feb-04 19:30N 39°09' W 075°15'510.8
2018-Feb-04 19:00N 39°14' W 075°18'5 9.9
2018-Feb-04 18:30N 39°18' W 075°23'5 9.1
2018-Feb-04 18:00N 39°21' W 075°26'5 9.0
2018-Feb-04 17:30N 39°24' W 075°30'17 8.3
2018-Feb-04 15:30N 39°41' W 075°31'510.7
2018-Feb-04 15:00N 39°46' W 075°29'4 9.1
2018-Feb-04 14:30N 39°49' W 075°24'5 9.2
2018-Feb-04 14:00N 39°51' W 075°19'510.4
2018-Feb-04 13:31N 39°53' W 075°12'4 8.0
2018-Feb-04 13:00N 39°55' W 075°08'3 6.4
2018-Feb-04 12:30N 39°58' W 075°07'4 8.3
2018-Feb-04 12:00N 40°01' W 075°03'5 9.4
2018-Feb-04 11:30N 40°03' W 074°58'11 7.1
2018-Feb-04 10:01N 40°08' W 074°45'0 0.3
2018-Feb-04 08:59N 40°08' W 074°45'0 0.0
2018-Feb-04 08:20N 40°08' W 074°45'0 0.0
2018-Feb-04 07:59N 40°08' W 074°45'0 0.0
2018-Feb-04 07:29N 40°08' W 074°45'0 0.0
2018-Feb-04 06:56N 40°08' W 074°45'0 0.0
2018-Feb-04 06:29N 40°08' W 074°45'0 0.0
2018-Feb-04 05:56N 40°08' W 074°45'0 0.0
2018-Feb-04 05:29N 40°08' W 074°45'0 0.0
2018-Feb-04 04:53N 40°08' W 074°45'0 0.0
2018-Feb-04 04:29N 40°08' W 074°45'0 0.0
2018-Feb-04 03:56N 40°08' W 074°45'0 0.0
2018-Feb-04 03:29N 40°08' W 074°45'0 0.0
2018-Feb-04 02:59N 40°08' W 074°45'0 0.0
2018-Feb-04 02:29N 40°08' W 074°45'0 0.0
2018-Feb-04 01:59N 40°08' W 074°45'0 0.0
2018-Feb-04 01:29N 40°08' W 074°45'0 0.0
2018-Feb-04 00:56N 40°08' W 074°45'0 0.0
2018-Feb-04 00:29N 40°08' W 074°45'0 0.0
2018-Feb-03 23:56N 40°08' W 074°45'0 0.0
2018-Feb-03 23:26N 40°08' W 074°45'0 0.0
2018-Feb-03 22:56N 40°08' W 074°45'0 0.0
2018-Feb-03 22:29N 40°08' W 074°45'0 0.0
2018-Feb-03 21:59N 40°08' W 074°45'0 0.0
2018-Feb-03 21:29N 40°08' W 074°45'0 0.0
2018-Feb-03 20:56N 40°08' W 074°45'0 0.0
2018-Feb-03 20:29N 40°08' W 074°45'0 0.0
2018-Feb-03 19:56N 40°08' W 074°45'0 0.0
2018-Feb-03 18:29N 40°08' W 074°45'0 0.0
2018-Feb-03 17:59N 40°08' W 074°45'0 0.0
2018-Feb-03 17:26N 40°08' W 074°45'0 0.0
2018-Feb-03 16:59N 40°08' W 074°45'0 0.0
2018-Feb-03 15:59N 40°08' W 074°45'0 0.0
2018-Feb-03 15:29N 40°08' W 074°45'0 0.0
2018-Feb-03 14:59N 40°08' W 074°45'0 0.0
2018-Feb-03 14:29N 40°08' W 074°45'0 0.0
2018-Feb-03 13:59N 40°08' W 074°45'0 0.0
2018-Feb-03 13:29N 40°08' W 074°45'0 0.0
2018-Feb-03 12:59N 40°08' W 074°45'0 0.0
2018-Feb-03 12:20N 40°08' W 074°45'0 0.0
2018-Feb-03 11:59N 40°08' W 074°45'0 0.0
2018-Feb-03 11:29N 40°08' W 074°45'0 0.0
2018-Feb-03 10:59N 40°08' W 074°45'0 0.0
2018-Feb-03 10:29N 40°08' W 074°45'0 0.0
2018-Feb-03 09:56N 40°08' W 074°45'0 0.0
2018-Feb-03 09:26N 40°08' W 074°45'0 0.0
2018-Feb-03 08:59N 40°08' W 074°45'0 0.0
2018-Feb-03 08:29N 40°08' W 074°45'0 0.0
2018-Feb-03 07:59N 40°08' W 074°45'0 0.0
2018-Feb-03 06:29N 40°08' W 074°45'0 0.0
2018-Feb-03 05:59N 40°08' W 074°45'0 0.0
2018-Feb-03 05:29N 40°08' W 074°45'0 0.0
2018-Feb-03 04:59N 40°08' W 074°45'0 0.0
2018-Feb-03 03:59N 40°08' W 074°45'0 0.0
2018-Feb-03 03:29N 40°08' W 074°45'0 0.0
2018-Feb-03 01:59N 40°08' W 074°45'0 0.0
2018-Feb-03 01:29N 40°08' W 074°45'0 0.0
2018-Feb-03 00:59N 40°08' W 074°45'0 0.0
2018-Feb-03 00:26N 40°08' W 074°45'0 0.0
2018-Feb-02 23:59N 40°08' W 074°45'0 0.0
2018-Feb-02 23:29N 40°08' W 074°45'0 0.0
2018-Feb-02 22:56N 40°08' W 074°45'0 0.0
2018-Feb-02 22:29N 40°08' W 074°45'0 0.0
2018-Feb-02 21:59N 40°08' W 074°45'0 0.0
2018-Feb-02 21:29N 40°08' W 074°45'0 0.0
2018-Feb-02 20:59N 40°08' W 074°45'0 0.0
2018-Feb-02 20:29N 40°08' W 074°45'0 0.0
2018-Feb-02 19:59N 40°08' W 074°45'0 0.0
2018-Feb-02 18:59N 40°08' W 074°45'0 0.0
2018-Feb-02 18:29N 40°08' W 074°45'0 0.0
2018-Feb-02 17:59N 40°08' W 074°45'0 0.0
2018-Feb-02 17:29N 40°08' W 074°45'0 0.0
2018-Feb-02 16:59N 40°08' W 074°45'0 0.0
2018-Feb-02 16:26N 40°08' W 074°45'0 0.0
2018-Feb-02 15:29N 40°08' W 074°45'0 0.0
2018-Feb-02 14:29N 40°08' W 074°45'0 0.0
2018-Feb-02 13:56N 40°08' W 074°45'0 0.0
2018-Feb-02 13:29N 40°08' W 074°45'0 0.0
2018-Feb-02 12:59N 40°08' W 074°45'0 0.0
2018-Feb-02 12:26N 40°08' W 074°45'0 0.0
2018-Feb-02 11:59N 40°08' W 074°45'0 0.0
2018-Feb-02 11:29N 40°08' W 074°45'0 0.0
2018-Feb-02 10:56N 40°08' W 074°45'0 0.0
2018-Feb-02 10:29N 40°08' W 074°45'0 0.0
2018-Feb-02 09:50N 40°08' W 074°45'0 0.0
2018-Feb-02 09:29N 40°08' W 074°45'0 0.0
2018-Feb-02 08:56N 40°08' W 074°45'0 0.0
2018-Feb-02 08:20N 40°08' W 074°45'0 0.0
2018-Feb-02 07:59N 40°08' W 074°45'0 0.0
2018-Feb-02 07:29N 40°08' W 074°45'0 0.0
2018-Feb-02 06:59N 40°08' W 074°45'0 0.0
2018-Feb-02 06:29N 40°08' W 074°45'0 0.0
2018-Feb-02 05:56N 40°08' W 074°45'0 0.0
2018-Feb-02 05:29N 40°08' W 074°45'0 0.0
2018-Feb-02 04:53N 40°08' W 074°45'0 0.0
2018-Feb-02 04:29N 40°08' W 074°45'0 0.0
2018-Feb-02 03:59N 40°08' W 074°45'0 0.0
2018-Feb-02 03:29N 40°08' W 074°45'0 0.0
2018-Feb-02 02:59N 40°08' W 074°45'0 0.0
2018-Feb-02 02:29N 40°08' W 074°45'0 0.0
2018-Feb-02 01:59N 40°08' W 074°45'0 0.0
2018-Feb-02 01:29N 40°08' W 074°45'0 0.0
2018-Feb-02 00:59N 40°08' W 074°45'0 0.0
2018-Feb-02 00:29N 40°08' W 074°45'0 0.0
2018-Feb-01 23:59N 40°08' W 074°45'0 0.0
2018-Feb-01 23:29N 40°08' W 074°45'0 0.0
2018-Feb-01 22:59N 40°08' W 074°45'0 0.0
2018-Feb-01 21:59N 40°08' W 074°45'0 0.0
2018-Feb-01 21:29N 40°08' W 074°45'0 0.0
2018-Feb-01 19:29N 40°08' W 074°45'0 0.0
2018-Feb-01 18:59N 40°08' W 074°45'0 0.0
2018-Feb-01 18:29N 40°08' W 074°45'0 0.0
2018-Feb-01 17:59N 40°08' W 074°45'0 0.0
2018-Feb-01 17:29N 40°08' W 074°45'0 0.0
2018-Feb-01 16:59N 40°08' W 074°45'0 0.0
2018-Feb-01 16:29N 40°08' W 074°45'0 0.0
2018-Feb-01 15:59N 40°08' W 074°45'0 0.0
2018-Feb-01 15:26N 40°08' W 074°45'0 0.0
2018-Jan-31 15:53N 40°08' W 074°45'0 0.0
2018-Jan-31 15:29N 40°08' W 074°45'0 0.0
2018-Jan-31 14:59N 40°08' W 074°45'0 0.0
2018-Jan-31 14:26N 40°08' W 074°45'0 0.0
2018-Jan-31 12:59N 40°08' W 074°45'0 0.0
2018-Jan-31 12:29N 40°08' W 074°45'0 0.0
2018-Jan-31 11:59N 40°08' W 074°45'0 0.0
2018-Jan-31 11:29N 40°08' W 074°45'0 0.0
2018-Jan-31 10:59N 40°08' W 074°45'0 0.0
2018-Jan-31 10:29N 40°08' W 074°45'0 0.0
2018-Jan-31 09:59N 40°08' W 074°45'0 0.0
2018-Jan-31 09:29N 40°08' W 074°45'0 0.0
2018-Jan-31 08:59N 40°08' W 074°45'0 0.0
2018-Jan-31 08:29N 40°08' W 074°45'0 0.0
2018-Jan-31 07:56N 40°08' W 074°45'0 0.0
2018-Jan-31 07:29N 40°08' W 074°45'0 0.0
2018-Jan-31 06:59N 40°08' W 074°45'0 0.0
2018-Jan-31 06:20N 40°08' W 074°45'0 0.0
2018-Jan-31 05:59N 40°08' W 074°45'0 0.0
2018-Jan-31 05:29N 40°08' W 074°45'0 0.0
2018-Jan-31 04:59N 40°08' W 074°45'0 0.0
2018-Jan-31 04:29N 40°08' W 074°45'0 0.0
2018-Jan-31 03:59N 40°08' W 074°45'0 0.0
2018-Jan-31 03:26N 40°08' W 074°45'0 0.0
2018-Jan-31 02:56N 40°08' W 074°45'0 0.0
2018-Jan-31 02:26N 40°08' W 074°45'0 0.0
2018-Jan-31 01:59N 40°08' W 074°45'0 0.0
2018-Jan-31 01:29N 40°08' W 074°45'0 0.0
2018-Jan-31 00:59N 40°08' W 074°45'0 0.0
2018-Jan-30 23:59N 40°08' W 074°45'0 0.0
2018-Jan-30 23:29N 40°08' W 074°45'0 0.0
2018-Jan-30 22:59N 40°08' W 074°45'0 0.0
2018-Jan-30 22:29N 40°08' W 074°45'0 0.0
2018-Jan-30 21:29N 40°08' W 074°45'0 0.0
2018-Jan-30 20:59N 40°08' W 074°45'0 0.0
2018-Jan-30 20:29N 40°08' W 074°45'0 0.0
2018-Jan-30 19:56N 40°08' W 074°45'0 0.0
2018-Jan-30 19:29N 40°08' W 074°45'0 0.0
2018-Jan-30 18:59N 40°08' W 074°45'0 0.0
2018-Jan-30 18:29N 40°08' W 074°45'0 0.0
2018-Jan-30 17:59N 40°08' W 074°45'0 0.0
2018-Jan-30 17:29N 40°08' W 074°45'0 0.0
2018-Jan-30 16:56N 40°08' W 074°45'0 0.0
2018-Jan-30 16:29N 40°08' W 074°45'0 0.0
2018-Jan-30 15:59N 40°08' W 074°45'0 0.0
2018-Jan-30 15:29N 40°08' W 074°45'0 0.0
2018-Jan-30 14:59N 40°08' W 074°45'0 0.0
2018-Jan-30 14:29N 40°08' W 074°45'0 0.0
2018-Jan-30 13:29N 40°08' W 074°45'0 0.0
2018-Jan-30 12:59N 40°08' W 074°45'0 0.0
2018-Jan-30 12:29N 40°08' W 074°45'0 0.0
2018-Jan-30 11:59N 40°08' W 074°45'0 0.0
2018-Jan-30 11:29N 40°08' W 074°45'0 0.0
2018-Jan-30 10:29N 40°08' W 074°45'0 0.0
2018-Jan-30 09:29N 40°08' W 074°45'0 0.0
2018-Jan-30 08:59N 40°08' W 074°45'0 0.0
2018-Jan-30 08:29N 40°08' W 074°45'0 0.0
2018-Jan-30 07:59N 40°08' W 074°45'0 0.0
2018-Jan-30 07:29N 40°08' W 074°45'0 0.0
2018-Jan-30 06:59N 40°08' W 074°45'0 0.0
2018-Jan-30 06:29N 40°08' W 074°45'0 0.0
2018-Jan-30 05:59N 40°08' W 074°45'0 0.0
2018-Jan-30 05:29N 40°08' W 074°45'0 0.0
2018-Jan-30 04:56N 40°08' W 074°45'0 0.0
2018-Jan-30 04:29N 40°08' W 074°45'0 0.0
2018-Jan-30 03:59N 40°08' W 074°45'0 0.0
2018-Jan-30 03:29N 40°08' W 074°45'0 0.0
2018-Jan-30 02:59N 40°08' W 074°45'0 0.0
2018-Jan-30 02:29N 40°08' W 074°45'0 0.0
2018-Jan-30 01:59N 40°08' W 074°45'0 0.0
2018-Jan-30 01:29N 40°08' W 074°45'0 0.0
2018-Jan-30 00:59N 40°08' W 074°45'0 0.0
2018-Jan-30 00:29N 40°08' W 074°45'0 0.0
2018-Jan-29 23:59N 40°08' W 074°45'0 0.0
2018-Jan-29 23:29N 40°08' W 074°45'0 0.0
2018-Jan-29 22:59N 40°08' W 074°45'0 0.0
2018-Jan-29 22:29N 40°08' W 074°45'0 0.0
2018-Jan-29 21:59N 40°08' W 074°45'0 0.0
2018-Jan-29 21:29N 40°08' W 074°45'0 0.0
2018-Jan-29 20:59N 40°08' W 074°45'0 0.0
2018-Jan-29 20:29N 40°08' W 074°45'0 0.0
2018-Jan-29 19:59N 40°08' W 074°45'0 0.0
2018-Jan-29 19:29N 40°08' W 074°45'0 0.0
2018-Jan-29 18:59N 40°08' W 074°45'0 0.0
2018-Jan-29 18:29N 40°08' W 074°45'0 0.0
2018-Jan-29 17:59N 40°08' W 074°45'0 0.0
2018-Jan-29 17:29N 40°08' W 074°45'0 0.0
2018-Jan-29 16:59N 40°08' W 074°45'0 0.0
2018-Jan-29 16:29N 40°08' W 074°45'0 0.0
2018-Jan-29 15:59N 40°08' W 074°45'0 0.0
2018-Jan-29 15:29N 40°08' W 074°45'0 0.0
2018-Jan-29 14:59N 40°08' W 074°45'0 0.0
2018-Jan-29 14:29N 40°08' W 074°45'0 0.0
2018-Jan-29 13:59N 40°08' W 074°45'0 0.0
2018-Jan-29 13:29N 40°08' W 074°45'0 0.0
2018-Jan-29 12:59N 40°08' W 074°45'0 0.0
2018-Jan-29 12:30N 40°08' W 074°45'0 0.1
2018-Jan-29 12:00N 40°08' W 074°45'1 1.2
2018-Jan-29 11:30N 40°08' W 074°46'2 4.8
2018-Jan-29 11:00N 40°08' W 074°49'4 7.6
2018-Jan-29 10:30N 40°05' W 074°52'5 9.1
2018-Jan-29 10:00N 40°03' W 074°58'5 9.1
2018-Jan-29 09:30N 40°01' W 075°03'4 8.6
2018-Jan-29 09:00N 39°58' W 075°07'4 8.4
2018-Jan-29 08:30N 39°54' W 075°08'4 7.6
2018-Jan-29 08:00N 39°52' W 075°13'1 2.6
2018-Jan-29 07:29N 39°51' W 075°14'0 0.0
2018-Jan-29 06:59N 39°51' W 075°14'0 0.0
2018-Jan-29 06:29N 39°51' W 075°14'0 0.0
2018-Jan-29 05:59N 39°51' W 075°14'0 0.0
2018-Jan-29 05:29N 39°51' W 075°14'0 0.0
2018-Jan-29 04:59N 39°51' W 075°14'0 0.3
2018-Jan-29 04:29N 39°51' W 075°14'0 0.1
2018-Jan-29 03:59N 39°51' W 075°14'0 0.0
2018-Jan-29 03:29N 39°51' W 075°14'0 0.0
2018-Jan-29 02:59N 39°51' W 075°14'0 0.0
2018-Jan-29 02:29N 39°51' W 075°14'0 0.0
2018-Jan-29 01:59N 39°51' W 075°14'0 0.0
2018-Jan-29 01:29N 39°51' W 075°14'0 0.0
2018-Jan-29 00:59N 39°51' W 075°14'0 0.0
2018-Jan-29 00:29N 39°51' W 075°14'0 0.1
2018-Jan-28 23:59N 39°51' W 075°14'0 0.3
2018-Jan-28 23:29N 39°51' W 075°14'0 0.1
2018-Jan-28 22:59N 39°51' W 075°14'0 0.0
2018-Jan-28 22:29N 39°51' W 075°14'0 0.0
2018-Jan-28 21:59N 39°51' W 075°14'0 0.0
2018-Jan-28 21:29N 39°51' W 075°14'0 0.0
2018-Jan-28 20:59N 39°51' W 075°14'0 0.0
2018-Jan-28 20:29N 39°51' W 075°14'0 0.0
2018-Jan-28 19:59N 39°51' W 075°14'0 0.0
2018-Jan-28 19:29N 39°51' W 075°14'0 0.0
2018-Jan-28 18:59N 39°51' W 075°14'0 0.0
2018-Jan-28 18:29N 39°51' W 075°14'0 0.0
2018-Jan-28 17:59N 39°51' W 075°14'0 0.0
2018-Jan-28 17:29N 39°51' W 075°14'0 0.0
2018-Jan-28 16:59N 39°51' W 075°14'0 0.3
2018-Jan-28 16:29N 39°51' W 075°14'0 0.1
2018-Jan-28 15:59N 39°51' W 075°14'0 0.0
2018-Jan-28 15:29N 39°51' W 075°14'0 0.0
2018-Jan-28 14:59N 39°51' W 075°14'0 0.0
2018-Jan-28 14:29N 39°51' W 075°14'0 0.0
2018-Jan-28 13:59N 39°51' W 075°14'0 0.0
2018-Jan-28 13:29N 39°51' W 075°14'0 0.0
2018-Jan-28 12:59N 39°51' W 075°14'0 0.0
2018-Jan-28 12:29N 39°51' W 075°14'0 0.1
2018-Jan-28 12:00N 39°51' W 075°14'2 3.7
2018-Jan-28 11:30N 39°51' W 075°16'510.8
2018-Jan-28 11:01N 39°49' W 075°23'5 9.9
2018-Jan-28 10:30N 39°47' W 075°28'713.1
2018-Jan-28 10:00N 39°41' W 075°31'611.9
2018-Jan-28 09:30N 39°35' W 075°33'613.0
2018-Jan-28 09:00N 39°28' W 075°34'612.8
2018-Jan-28 08:31N 39°23' W 075°29'612.8
2018-Jan-28 08:00N 39°18' W 075°23'611.7
2018-Jan-28 07:30N 39°14' W 075°18'612.3
2018-Jan-28 07:00N 39°09' W 075°14'612.2
2018-Jan-28 06:30N 39°03' W 075°10'40 2.0
2018-Jan-27 10:24N 38°33' W 074°37'0 0.0
2018-Jan-27 09:57N 38°33' W 074°37'  
Track history (hours):
 
Tides and Currents Weather Stations Pressure Air Temp Water Temp Dewpoint Dewpoint Depression Visibility Wind Speed Wind Dir Waves Ship Positions

Coreocean Ol

Last reported at 2018-Feb-04 19:58 UTC. Time now 2018-Feb-22 11:10 UTC.
Position N 39°05' W 075°11'.
Warning: this ship's position is 17 days out of date.

Length 170 m; draft 10.3 m.

Type: Cargo ship. MMSI: 372878000.

Date/timePositionNaut miles runAvg speedWind from/ knotsBaromVisibWave heightAir tempDewpointWater temp
2018-Feb-04 19:58N 39°05' W 075°11'511.5
2018-Feb-04 19:30N 39°09' W 075°15'510.8
2018-Feb-04 19:00N 39°14' W 075°18'5 9.9
2018-Feb-04 18:30N 39°18' W 075°23'5 9.1
2018-Feb-04 18:00N 39°21' W 075°26'5 9.0
2018-Feb-04 17:30N 39°24' W 075°30'17 8.3
2018-Feb-04 15:30N 39°41' W 075°31'510.7
2018-Feb-04 15:00N 39°46' W 075°29'4 9.1
2018-Feb-04 14:30N 39°49' W 075°24'5 9.2
2018-Feb-04 14:00N 39°51' W 075°19'510.4
2018-Feb-04 13:31N 39°53' W 075°12'4 8.0
2018-Feb-04 13:00N 39°55' W 075°08'3 6.4
2018-Feb-04 12:30N 39°58' W 075°07'4 8.3
2018-Feb-04 12:00N 40°01' W 075°03'5 9.4
2018-Feb-04 11:30N 40°03' W 074°58'11 7.1
2018-Feb-04 10:01N 40°08' W 074°45'0 0.3
2018-Feb-04 08:59N 40°08' W 074°45'0 0.0
2018-Feb-04 08:20N 40°08' W 074°45'0 0.0
2018-Feb-04 07:59N 40°08' W 074°45'0 0.0
2018-Feb-04 07:29N 40°08' W 074°45'0 0.0
2018-Feb-04 06:56N 40°08' W 074°45'0 0.0
2018-Feb-04 06:29N 40°08' W 074°45'0 0.0
2018-Feb-04 05:56N 40°08' W 074°45'0 0.0
2018-Feb-04 05:29N 40°08' W 074°45'0 0.0
2018-Feb-04 04:53N 40°08' W 074°45'0 0.0
2018-Feb-04 04:29N 40°08' W 074°45'0 0.0
2018-Feb-04 03:56N 40°08' W 074°45'0 0.0
2018-Feb-04 03:29N 40°08' W 074°45'0 0.0
2018-Feb-04 02:59N 40°08' W 074°45'0 0.0
2018-Feb-04 02:29N 40°08' W 074°45'0 0.0
2018-Feb-04 01:59N 40°08' W 074°45'0 0.0
2018-Feb-04 01:29N 40°08' W 074°45'0 0.0
2018-Feb-04 00:56N 40°08' W 074°45'0 0.0
2018-Feb-04 00:29N 40°08' W 074°45'0 0.0
2018-Feb-03 23:56N 40°08' W 074°45'0 0.0
2018-Feb-03 23:26N 40°08' W 074°45'0 0.0
2018-Feb-03 22:56N 40°08' W 074°45'0 0.0
2018-Feb-03 22:29N 40°08' W 074°45'0 0.0
2018-Feb-03 21:59N 40°08' W 074°45'0 0.0
2018-Feb-03 21:29N 40°08' W 074°45'0 0.0
2018-Feb-03 20:56N 40°08' W 074°45'0 0.0
2018-Feb-03 20:29N 40°08' W 074°45'0 0.0
2018-Feb-03 19:56N 40°08' W 074°45'0 0.0
2018-Feb-03 18:29N 40°08' W 074°45'0 0.0
2018-Feb-03 17:59N 40°08' W 074°45'0 0.0
2018-Feb-03 17:26N 40°08' W 074°45'0 0.0
2018-Feb-03 16:59N 40°08' W 074°45'0 0.0
2018-Feb-03 15:59N 40°08' W 074°45'0 0.0
2018-Feb-03 15:29N 40°08' W 074°45'0 0.0
2018-Feb-03 14:59N 40°08' W 074°45'0 0.0
2018-Feb-03 14:29N 40°08' W 074°45'0 0.0
2018-Feb-03 13:59N 40°08' W 074°45'0 0.0
2018-Feb-03 13:29N 40°08' W 074°45'0 0.0
2018-Feb-03 12:59N 40°08' W 074°45'0 0.0
2018-Feb-03 12:20N 40°08' W 074°45'0 0.0
2018-Feb-03 11:59N 40°08' W 074°45'0 0.0
2018-Feb-03 11:29N 40°08' W 074°45'0 0.0
2018-Feb-03 10:59N 40°08' W 074°45'0 0.0
2018-Feb-03 10:29N 40°08' W 074°45'0 0.0
2018-Feb-03 09:56N 40°08' W 074°45'0 0.0
2018-Feb-03 09:26N 40°08' W 074°45'0 0.0
2018-Feb-03 08:59N 40°08' W 074°45'0 0.0
2018-Feb-03 08:29N 40°08' W 074°45'0 0.0
2018-Feb-03 07:59N 40°08' W 074°45'0 0.0
2018-Feb-03 06:29N 40°08' W 074°45'0 0.0
2018-Feb-03 05:59N 40°08' W 074°45'0 0.0
2018-Feb-03 05:29N 40°08' W 074°45'0 0.0
2018-Feb-03 04:59N 40°08' W 074°45'0 0.0
2018-Feb-03 03:59N 40°08' W 074°45'0 0.0
2018-Feb-03 03:29N 40°08' W 074°45'0 0.0
2018-Feb-03 01:59N 40°08' W 074°45'0 0.0
2018-Feb-03 01:29N 40°08' W 074°45'0 0.0
2018-Feb-03 00:59N 40°08' W 074°45'0 0.0
2018-Feb-03 00:26N 40°08' W 074°45'0 0.0
2018-Feb-02 23:59N 40°08' W 074°45'0 0.0
2018-Feb-02 23:29N 40°08' W 074°45'0 0.0
2018-Feb-02 22:56N 40°08' W 074°45'0 0.0
2018-Feb-02 22:29N 40°08' W 074°45'0 0.0
2018-Feb-02 21:59N 40°08' W 074°45'0 0.0
2018-Feb-02 21:29N 40°08' W 074°45'0 0.0
2018-Feb-02 20:59N 40°08' W 074°45'0 0.0
2018-Feb-02 20:29N 40°08' W 074°45'0 0.0
2018-Feb-02 19:59N 40°08' W 074°45'0 0.0
2018-Feb-02 18:59N 40°08' W 074°45'0 0.0
2018-Feb-02 18:29N 40°08' W 074°45'0 0.0
2018-Feb-02 17:59N 40°08' W 074°45'0 0.0
2018-Feb-02 17:29N 40°08' W 074°45'0 0.0
2018-Feb-02 16:59N 40°08' W 074°45'0 0.0
2018-Feb-02 16:26N 40°08' W 074°45'0 0.0
2018-Feb-02 15:29N 40°08' W 074°45'0 0.0
2018-Feb-02 14:29N 40°08' W 074°45'0 0.0
2018-Feb-02 13:56N 40°08' W 074°45'0 0.0
2018-Feb-02 13:29N 40°08' W 074°45'0 0.0
2018-Feb-02 12:59N 40°08' W 074°45'0 0.0
2018-Feb-02 12:26N 40°08' W 074°45'0 0.0
2018-Feb-02 11:59N 40°08' W 074°45'0 0.0
2018-Feb-02 11:29N 40°08' W 074°45'0 0.0
2018-Feb-02 10:56N 40°08' W 074°45'0 0.0
2018-Feb-02 10:29N 40°08' W 074°45'0 0.0
2018-Feb-02 09:50N 40°08' W 074°45'0 0.0
2018-Feb-02 09:29N 40°08' W 074°45'0 0.0
2018-Feb-02 08:56N 40°08' W 074°45'0 0.0
2018-Feb-02 08:20N 40°08' W 074°45'0 0.0
2018-Feb-02 07:59N 40°08' W 074°45'0 0.0
2018-Feb-02 07:29N 40°08' W 074°45'0 0.0
2018-Feb-02 06:59N 40°08' W 074°45'0 0.0
2018-Feb-02 06:29N 40°08' W 074°45'0 0.0
2018-Feb-02 05:56N 40°08' W 074°45'0 0.0
2018-Feb-02 05:29N 40°08' W 074°45'0 0.0
2018-Feb-02 04:53N 40°08' W 074°45'0 0.0
2018-Feb-02 04:29N 40°08' W 074°45'0 0.0
2018-Feb-02 03:59N 40°08' W 074°45'0 0.0
2018-Feb-02 03:29N 40°08' W 074°45'0 0.0
2018-Feb-02 02:59N 40°08' W 074°45'0 0.0
2018-Feb-02 02:29N 40°08' W 074°45'0 0.0
2018-Feb-02 01:59N 40°08' W 074°45'0 0.0
2018-Feb-02 01:29N 40°08' W 074°45'0 0.0
2018-Feb-02 00:59N 40°08' W 074°45'0 0.0
2018-Feb-02 00:29N 40°08' W 074°45'0 0.0
2018-Feb-01 23:59N 40°08' W 074°45'0 0.0
2018-Feb-01 23:29N 40°08' W 074°45'0 0.0
2018-Feb-01 22:59N 40°08' W 074°45'0 0.0
2018-Feb-01 21:59N 40°08' W 074°45'0 0.0
2018-Feb-01 21:29N 40°08' W 074°45'0 0.0
2018-Feb-01 19:29N 40°08' W 074°45'0 0.0
2018-Feb-01 18:59N 40°08' W 074°45'0 0.0
2018-Feb-01 18:29N 40°08' W 074°45'0 0.0
2018-Feb-01 17:59N 40°08' W 074°45'0 0.0
2018-Feb-01 17:29N 40°08' W 074°45'0 0.0
2018-Feb-01 16:59N 40°08' W 074°45'0 0.0
2018-Feb-01 16:29N 40°08' W 074°45'0 0.0
2018-Feb-01 15:59N 40°08' W 074°45'0 0.0
2018-Feb-01 15:26N 40°08' W 074°45'0 0.0
2018-Jan-31 15:53N 40°08' W 074°45'0 0.0
2018-Jan-31 15:29N 40°08' W 074°45'0 0.0
2018-Jan-31 14:59N 40°08' W 074°45'0 0.0
2018-Jan-31 14:26N 40°08' W 074°45'0 0.0
2018-Jan-31 12:59N 40°08' W 074°45'0 0.0
2018-Jan-31 12:29N 40°08' W 074°45'0 0.0
2018-Jan-31 11:59N 40°08' W 074°45'0 0.0
2018-Jan-31 11:29N 40°08' W 074°45'0 0.0
2018-Jan-31 10:59N 40°08' W 074°45'0 0.0
2018-Jan-31 10:29N 40°08' W 074°45'0 0.0
2018-Jan-31 09:59N 40°08' W 074°45'0 0.0
2018-Jan-31 09:29N 40°08' W 074°45'0 0.0
2018-Jan-31 08:59N 40°08' W 074°45'0 0.0
2018-Jan-31 08:29N 40°08' W 074°45'0 0.0
2018-Jan-31 07:56N 40°08' W 074°45'0 0.0
2018-Jan-31 07:29N 40°08' W 074°45'0 0.0
2018-Jan-31 06:59N 40°08' W 074°45'0 0.0
2018-Jan-31 06:20N 40°08' W 074°45'0 0.0
2018-Jan-31 05:59N 40°08' W 074°45'0 0.0
2018-Jan-31 05:29N 40°08' W 074°45'0 0.0
2018-Jan-31 04:59N 40°08' W 074°45'0 0.0
2018-Jan-31 04:29N 40°08' W 074°45'0 0.0
2018-Jan-31 03:59N 40°08' W 074°45'0 0.0
2018-Jan-31 03:26N 40°08' W 074°45'0 0.0
2018-Jan-31 02:56N 40°08' W 074°45'0 0.0
2018-Jan-31 02:26N 40°08' W 074°45'0 0.0
2018-Jan-31 01:59N 40°08' W 074°45'0 0.0
2018-Jan-31 01:29N 40°08' W 074°45'0 0.0
2018-Jan-31 00:59N 40°08' W 074°45'0 0.0
2018-Jan-30 23:59N 40°08' W 074°45'0 0.0
2018-Jan-30 23:29N 40°08' W 074°45'0 0.0
2018-Jan-30 22:59N 40°08' W 074°45'0 0.0
2018-Jan-30 22:29N 40°08' W 074°45'0 0.0
2018-Jan-30 21:29N 40°08' W 074°45'0 0.0
2018-Jan-30 20:59N 40°08' W 074°45'0 0.0
2018-Jan-30 20:29N 40°08' W 074°45'0 0.0
2018-Jan-30 19:56N 40°08' W 074°45'0 0.0
2018-Jan-30 19:29N 40°08' W 074°45'0 0.0
2018-Jan-30 18:59N 40°08' W 074°45'0 0.0
2018-Jan-30 18:29N 40°08' W 074°45'0 0.0
2018-Jan-30 17:59N 40°08' W 074°45'0 0.0
2018-Jan-30 17:29N 40°08' W 074°45'0 0.0
2018-Jan-30 16:56N 40°08' W 074°45'0 0.0
2018-Jan-30 16:29N 40°08' W 074°45'0 0.0
2018-Jan-30 15:59N 40°08' W 074°45'0 0.0
2018-Jan-30 15:29N 40°08' W 074°45'0 0.0
2018-Jan-30 14:59N 40°08' W 074°45'0 0.0
2018-Jan-30 14:29N 40°08' W 074°45'0 0.0
2018-Jan-30 13:29N 40°08' W 074°45'0 0.0
2018-Jan-30 12:59N 40°08' W 074°45'0 0.0
2018-Jan-30 12:29N 40°08' W 074°45'0 0.0
2018-Jan-30 11:59N 40°08' W 074°45'0 0.0
2018-Jan-30 11:29N 40°08' W 074°45'0 0.0
2018-Jan-30 10:29N 40°08' W 074°45'0 0.0
2018-Jan-30 09:29N 40°08' W 074°45'0 0.0
2018-Jan-30 08:59N 40°08' W 074°45'0 0.0
2018-Jan-30 08:29N 40°08' W 074°45'0 0.0
2018-Jan-30 07:59N 40°08' W 074°45'0 0.0
2018-Jan-30 07:29N 40°08' W 074°45'0 0.0
2018-Jan-30 06:59N 40°08' W 074°45'0 0.0
2018-Jan-30 06:29N 40°08' W 074°45'0 0.0
2018-Jan-30 05:59N 40°08' W 074°45'0 0.0
2018-Jan-30 05:29N 40°08' W 074°45'0 0.0
2018-Jan-30 04:56N 40°08' W 074°45'0 0.0
2018-Jan-30 04:29N 40°08' W 074°45'0 0.0
2018-Jan-30 03:59N 40°08' W 074°45'0 0.0
2018-Jan-30 03:29N 40°08' W 074°45'0 0.0
2018-Jan-30 02:59N 40°08' W 074°45'0 0.0
2018-Jan-30 02:29N 40°08' W 074°45'0 0.0
2018-Jan-30 01:59N 40°08' W 074°45'0 0.0
2018-Jan-30 01:29N 40°08' W 074°45'0 0.0
2018-Jan-30 00:59N 40°08' W 074°45'0 0.0
2018-Jan-30 00:29N 40°08' W 074°45'0 0.0
2018-Jan-29 23:59N 40°08' W 074°45'0 0.0
2018-Jan-29 23:29N 40°08' W 074°45'0 0.0
2018-Jan-29 22:59N 40°08' W 074°45'0 0.0
2018-Jan-29 22:29N 40°08' W 074°45'0 0.0
2018-Jan-29 21:59N 40°08' W 074°45'0 0.0
2018-Jan-29 21:29N 40°08' W 074°45'0 0.0
2018-Jan-29 20:59N 40°08' W 074°45'0 0.0
2018-Jan-29 20:29N 40°08' W 074°45'0 0.0
2018-Jan-29 19:59N 40°08' W 074°45'0 0.0
2018-Jan-29 19:29N 40°08' W 074°45'0 0.0
2018-Jan-29 18:59N 40°08' W 074°45'0 0.0
2018-Jan-29 18:29N 40°08' W 074°45'0 0.0
2018-Jan-29 17:59N 40°08' W 074°45'0 0.0
2018-Jan-29 17:29N 40°08' W 074°45'0 0.0
2018-Jan-29 16:59N 40°08' W 074°45'0 0.0
2018-Jan-29 16:29N 40°08' W 074°45'0 0.0
2018-Jan-29 15:59N 40°08' W 074°45'0 0.0
2018-Jan-29 15:29N 40°08' W 074°45'0 0.0
2018-Jan-29 14:59N 40°08' W 074°45'0 0.0
2018-Jan-29 14:29N 40°08' W 074°45'0 0.0
2018-Jan-29 13:59N 40°08' W 074°45'0 0.0
2018-Jan-29 13:29N 40°08' W 074°45'0 0.0
2018-Jan-29 12:59N 40°08' W 074°45'0 0.0
2018-Jan-29 12:30N 40°08' W 074°45'0 0.1
2018-Jan-29 12:00N 40°08' W 074°45'1 1.2
2018-Jan-29 11:30N 40°08' W 074°46'2 4.8
2018-Jan-29 11:00N 40°08' W 074°49'4 7.6
2018-Jan-29 10:30N 40°05' W 074°52'5 9.1
2018-Jan-29 10:00N 40°03' W 074°58'5 9.1
2018-Jan-29 09:30N 40°01' W 075°03'4 8.6
2018-Jan-29 09:00N 39°58' W 075°07'4 8.4
2018-Jan-29 08:30N 39°54' W 075°08'4 7.6
2018-Jan-29 08:00N 39°52' W 075°13'1 2.6
2018-Jan-29 07:29N 39°51' W 075°14'0 0.0
2018-Jan-29 06:59N 39°51' W 075°14'0 0.0
2018-Jan-29 06:29N 39°51' W 075°14'0 0.0
2018-Jan-29 05:59N 39°51' W 075°14'0 0.0
2018-Jan-29 05:29N 39°51' W 075°14'0 0.0
2018-Jan-29 04:59N 39°51' W 075°14'0 0.3
2018-Jan-29 04:29N 39°51' W 075°14'0 0.1
2018-Jan-29 03:59N 39°51' W 075°14'0 0.0
2018-Jan-29 03:29N 39°51' W 075°14'0 0.0
2018-Jan-29 02:59N 39°51' W 075°14'0 0.0
2018-Jan-29 02:29N 39°51' W 075°14'0 0.0
2018-Jan-29 01:59N 39°51' W 075°14'0 0.0
2018-Jan-29 01:29N 39°51' W 075°14'0 0.0
2018-Jan-29 00:59N 39°51' W 075°14'0 0.0
2018-Jan-29 00:29N 39°51' W 075°14'0 0.1
2018-Jan-28 23:59N 39°51' W 075°14'0 0.3
2018-Jan-28 23:29N 39°51' W 075°14'0 0.1
2018-Jan-28 22:59N 39°51' W 075°14'0 0.0
2018-Jan-28 22:29N 39°51' W 075°14'0 0.0
2018-Jan-28 21:59N 39°51' W 075°14'0 0.0
2018-Jan-28 21:29N 39°51' W 075°14'0 0.0
2018-Jan-28 20:59N 39°51' W 075°14'0 0.0
2018-Jan-28 20:29N 39°51' W 075°14'0 0.0
2018-Jan-28 19:59N 39°51' W 075°14'0 0.0
2018-Jan-28 19:29N 39°51' W 075°14'0 0.0
2018-Jan-28 18:59N 39°51' W 075°14'0 0.0
2018-Jan-28 18:29N 39°51' W 075°14'0 0.0
2018-Jan-28 17:59N 39°51' W 075°14'0 0.0
2018-Jan-28 17:29N 39°51' W 075°14'0 0.0
2018-Jan-28 16:59N 39°51' W 075°14'0 0.3
2018-Jan-28 16:29N 39°51' W 075°14'0 0.1
2018-Jan-28 15:59N 39°51' W 075°14'0 0.0
2018-Jan-28 15:29N 39°51' W 075°14'0 0.0
2018-Jan-28 14:59N 39°51' W 075°14'0 0.0
2018-Jan-28 14:29N 39°51' W 075°14'0 0.0
2018-Jan-28 13:59N 39°51' W 075°14'0 0.0
2018-Jan-28 13:29N 39°51' W 075°14'0 0.0
2018-Jan-28 12:59N 39°51' W 075°14'0 0.0
2018-Jan-28 12:29N 39°51' W 075°14'0 0.1
2018-Jan-28 12:00N 39°51' W 075°14'2 3.7
2018-Jan-28 11:30N 39°51' W 075°16'510.8
2018-Jan-28 11:01N 39°49' W 075°23'5 9.9
2018-Jan-28 10:30N 39°47' W 075°28'713.1
2018-Jan-28 10:00N 39°41' W 075°31'611.9
2018-Jan-28 09:30N 39°35' W 075°33'613.0
2018-Jan-28 09:00N 39°28' W 075°34'612.8
2018-Jan-28 08:31N 39°23' W 075°29'612.8
2018-Jan-28 08:00N 39°18' W 075°23'611.7
2018-Jan-28 07:30N 39°14' W 075°18'612.3
2018-Jan-28 07:00N 39°09' W 075°14'612.2
2018-Jan-28 06:30N 39°03' W 075°10'40 2.0
2018-Jan-27 10:24N 38°33' W 074°37'0 0.0
2018-Jan-27 09:57N 38°33' W 074°37'  

Dump ship's entire track history